createdAt,value
2023-03-29T00:02:34.425Z,-1.40
2023-03-29T00:05:41.139Z,-1.41
2023-03-29T00:08:46.185Z,-1.42
2023-03-29T00:11:50.512Z,-1.43
2023-03-29T00:14:54.597Z,-1.45
2023-03-29T00:17:58.707Z,-1.46
2023-03-29T00:21:02.945Z,-1.47
2023-03-29T00:24:07.394Z,-1.49
2023-03-29T00:27:11.313Z,-1.51
2023-03-29T00:30:16.038Z,-1.53
2023-03-29T00:33:23.476Z,-1.54
2023-03-29T00:36:27.865Z,-1.57
2023-03-29T00:39:32.060Z,-1.59
2023-03-29T00:42:36.424Z,-1.59
2023-03-29T00:45:40.829Z,-1.60
2023-03-29T00:48:45.147Z,-1.61
2023-03-29T00:51:49.345Z,-1.63
2023-03-29T00:54:56.173Z,-1.63
2023-03-29T00:58:02.748Z,-1.65
2023-03-29T01:01:19.395Z,-1.67
2023-03-29T01:04:32.366Z,-1.68
2023-03-29T01:07:49.592Z,-1.68
2023-03-29T01:10:58.890Z,-1.68
2023-03-29T01:14:06.572Z,-1.69
2023-03-29T01:17:11.170Z,-1.70
2023-03-29T01:20:46.401Z,-1.72
2023-03-29T01:23:58.529Z,-1.73
2023-03-29T01:27:08.637Z,-1.74
2023-03-29T01:30:18.359Z,-1.74
2023-03-29T01:33:25.769Z,-1.75
2023-03-29T01:36:40.506Z,-1.75
2023-03-29T01:39:44.437Z,-1.76
2023-03-29T01:43:00.825Z,-1.77
2023-03-29T01:46:15.186Z,-1.78
2023-03-29T01:49:45.533Z,-1.80
2023-03-29T01:52:56.491Z,-1.83
2023-03-29T01:56:04.690Z,-1.85
2023-03-29T01:59:13.987Z,-1.89
2023-03-29T02:02:19.325Z,-1.90
2023-03-29T02:05:24.562Z,-1.90
2023-03-29T02:08:29.972Z,-1.93
2023-03-29T02:11:36.349Z,-1.95
2023-03-29T02:14:40.664Z,-1.96
2023-03-29T02:17:45.014Z,-1.96
2023-03-29T02:20:51.225Z,-1.96
2023-03-29T02:23:58.897Z,-1.95
2023-03-29T02:27:03.995Z,-1.97
2023-03-29T02:30:11.164Z,-1.95
2023-03-29T02:33:25.441Z,-1.96
2023-03-29T02:36:47.465Z,-1.94
2023-03-29T02:39:53.120Z,-1.90
2023-03-29T02:43:01.087Z,-1.83
2023-03-29T02:46:07.730Z,-1.76
2023-03-29T02:49:12.176Z,-1.72
2023-03-29T02:52:22.208Z,-1.70
2023-03-29T02:55:31.440Z,-1.70
2023-03-29T02:58:36.892Z,-1.71
2023-03-29T03:01:44.090Z,-1.73
2023-03-29T03:04:48.390Z,-1.74
2023-03-29T03:07:52.824Z,-1.78
2023-03-29T03:10:56.825Z,-1.81
2023-03-29T03:14:02.091Z,-1.84
2023-03-29T03:17:06.105Z,-1.86
2023-03-29T03:20:13.291Z,-1.88
2023-03-29T03:23:17.766Z,-1.91
2023-03-29T03:26:24.931Z,-1.94
2023-03-29T03:29:29.150Z,-1.95
2023-03-29T03:32:43.737Z,-1.99
2023-03-29T03:36:10.285Z,-2.02
2023-03-29T03:39:14.395Z,-2.04
2023-03-29T03:42:19.791Z,-2.05
2023-03-29T03:45:24.849Z,-2.08
2023-03-29T03:48:46.983Z,-2.09
2023-03-29T03:52:00.316Z,-2.09
2023-03-29T03:55:05.343Z,-2.05
2023-03-29T03:58:19.928Z,-1.99
2023-03-29T04:01:24.585Z,-1.93
2023-03-29T04:04:36.435Z,-1.89
2023-03-29T04:07:46.937Z,-1.87
2023-03-29T04:11:10.794Z,-1.88
2023-03-29T04:14:16.776Z,-1.89
2023-03-29T04:17:38.675Z,-1.90
2023-03-29T04:20:56.002Z,-1.96
2023-03-29T04:24:00.380Z,-2.01
2023-03-29T04:27:04.742Z,-2.07
2023-03-29T04:30:10.087Z,-2.11
2023-03-29T04:33:47.623Z,-2.14
2023-03-29T04:36:52.078Z,-2.16
2023-03-29T04:40:00.455Z,-2.18
2023-03-29T04:43:06.532Z,-2.20
2023-03-29T04:46:11.183Z,-2.22
2023-03-29T04:49:42.158Z,-2.22
2023-03-29T04:52:50.934Z,-2.18
2023-03-29T04:55:55.761Z,-2.12
2023-03-29T04:59:16.888Z,-2.01
2023-03-29T05:02:22.134Z,-1.89
2023-03-29T05:05:28.078Z,-1.81
2023-03-29T05:08:40.284Z,-1.78
2023-03-29T05:11:49.128Z,-1.74
2023-03-29T05:14:53.862Z,-1.71
2023-03-29T05:18:01.010Z,-1.68
2023-03-29T05:21:06.410Z,-1.66
2023-03-29T05:24:11.143Z,-1.63
2023-03-29T05:27:23.132Z,-1.61
2023-03-29T05:30:38.230Z,-1.59
2023-03-29T05:33:57.172Z,-1.56
2023-03-29T05:37:02.735Z,-1.51
2023-03-29T05:40:13.401Z,-1.48
2023-03-29T05:43:46.763Z,-1.45
2023-03-29T05:46:51.210Z,-1.41
2023-03-29T05:49:55.546Z,-1.36
2023-03-29T05:53:00.191Z,-1.27
2023-03-29T05:56:07.020Z,-1.18
2023-03-29T05:59:11.588Z,-1.05
2023-03-29T06:02:16.891Z,-0.93
2023-03-29T06:05:25.965Z,-0.80
2023-03-29T06:08:35.419Z,-0.69
2023-03-29T06:11:58.994Z,-0.57
2023-03-29T06:15:10.399Z,-0.48
2023-03-29T06:18:21.575Z,-0.39
2023-03-29T06:21:27.424Z,-0.33
2023-03-29T06:24:32.498Z,-0.27
2023-03-29T06:27:41.396Z,-0.22
2023-03-29T06:30:46.741Z,-0.17
2023-03-29T06:33:51.008Z,-0.13
2023-03-29T06:37:14.386Z,-0.05
2023-03-29T06:40:21.285Z,0.05
2023-03-29T06:43:26.296Z,0.13
2023-03-29T06:46:32.487Z,0.21
2023-03-29T06:49:39.714Z,0.28
2023-03-29T06:53:04.626Z,0.38
2023-03-29T06:56:09.871Z,0.48
2023-03-29T06:59:22.479Z,0.56
2023-03-29T07:02:32.327Z,0.64
2023-03-29T07:06:02.869Z,0.73
2023-03-29T07:09:08.022Z,0.81
2023-03-29T07:12:34.837Z,0.90
2023-03-29T07:15:41.130Z,0.98
2023-03-29T07:18:56.715Z,1.08
2023-03-29T07:22:29.693Z,1.19
2023-03-29T07:25:38.460Z,1.30
2023-03-29T07:28:43.214Z,1.41
2023-03-29T07:31:47.167Z,1.50
2023-03-29T07:35:13.537Z,1.59
2023-03-29T07:38:18.665Z,1.66
2023-03-29T07:41:31.075Z,1.72
2023-03-29T07:44:41.754Z,1.82
2023-03-29T07:47:47.684Z,1.89
2023-03-29T07:50:51.703Z,1.95
2023-03-29T07:53:59.966Z,2.00
2023-03-29T07:57:17.122Z,2.06
2023-03-29T08:00:28.048Z,2.16
2023-03-29T08:03:48.963Z,2.27
2023-03-29T08:06:54.403Z,2.36
2023-03-29T08:09:59.665Z,2.41
2023-03-29T08:13:15.121Z,2.46
2023-03-29T08:16:27.809Z,2.54
2023-03-29T08:19:58.195Z,2.62
2023-03-29T08:23:02.624Z,2.69
2023-03-29T08:26:31.526Z,2.77
2023-03-29T08:29:35.946Z,2.84
2023-03-29T08:32:39.986Z,2.93
2023-03-29T08:35:45.204Z,3.00
2023-03-29T08:38:57.636Z,3.05
2023-03-29T08:42:35.015Z,3.08
2023-03-29T08:46:00.139Z,3.15
2023-03-29T08:49:07.118Z,3.18
2023-03-29T08:52:20.477Z,3.22
2023-03-29T08:55:37.053Z,3.27
2023-03-29T08:58:58.447Z,3.33
2023-03-29T09:02:15.009Z,3.38
2023-03-29T09:05:40.630Z,3.40
2023-03-29T09:09:03.817Z,3.44
2023-03-29T09:12:14.340Z,3.47
2023-03-29T09:15:24.307Z,3.54
2023-03-29T09:19:16.447Z,3.61
2023-03-29T09:22:48.519Z,3.67
2023-03-29T09:26:10.350Z,3.73
2023-03-29T09:29:44.064Z,3.80
2023-03-29T09:33:10.369Z,3.86
2023-03-29T09:37:07.868Z,3.91
2023-03-29T09:40:22.008Z,4.01
2023-03-29T09:43:37.908Z,4.10
2023-03-29T09:46:51.974Z,4.14
2023-03-29T09:50:19.824Z,4.21
2023-03-29T09:53:34.203Z,4.29
2023-03-29T09:56:48.027Z,4.36
2023-03-29T09:59:57.420Z,4.44
2023-03-29T10:03:01.781Z,4.51
2023-03-29T10:06:21.600Z,4.58
2023-03-29T10:09:30.816Z,4.60
2023-03-29T10:12:50.413Z,4.64
2023-03-29T10:16:03.708Z,4.67
2023-03-29T10:19:28.146Z,4.71
2023-03-29T10:22:35.255Z,4.79
2023-03-29T10:25:42.496Z,4.89
2023-03-29T10:28:47.222Z,5.00
2023-03-29T10:31:52.223Z,5.08
2023-03-29T10:35:05.896Z,5.16
2023-03-29T10:38:15.039Z,5.31
2023-03-29T10:41:21.843Z,5.53
2023-03-29T10:44:35.013Z,5.74
2023-03-29T10:47:39.289Z,5.98
2023-03-29T10:50:49.516Z,6.21
2023-03-29T10:53:53.521Z,6.39
2023-03-29T10:57:01.427Z,6.53
2023-03-29T11:00:20.491Z,6.63
2023-03-29T11:03:40.686Z,6.72
2023-03-29T11:06:59.829Z,6.85
2023-03-29T11:10:29.163Z,7.00
2023-03-29T11:13:59.426Z,7.06
2023-03-29T11:17:19.466Z,7.05
2023-03-29T11:20:29.071Z,7.07
2023-03-29T11:23:59.374Z,7.09
2023-03-29T11:27:23.318Z,7.14
2023-03-29T11:30:42.428Z,7.23
2023-03-29T11:34:14.682Z,7.34
2023-03-29T11:37:46.533Z,7.40
2023-03-29T11:41:12.670Z,7.47
2023-03-29T11:44:31.742Z,7.42
2023-03-29T11:47:41.008Z,7.38
2023-03-29T11:50:54.138Z,7.33
2023-03-29T11:54:07.439Z,7.27
2023-03-29T11:57:32.151Z,7.26
2023-03-29T12:00:40.674Z,7.24
2023-03-29T12:03:52.954Z,7.22
2023-03-29T12:07:12.059Z,7.23
2023-03-29T12:10:27.464Z,7.24
2023-03-29T12:13:36.875Z,7.19
2023-03-29T12:16:54.888Z,7.17
2023-03-29T12:20:19.398Z,7.16
2023-03-29T12:23:24.237Z,7.19
2023-03-29T12:26:38.190Z,7.25
2023-03-29T12:30:04.040Z,7.33
2023-03-29T12:33:46.749Z,7.50
2023-03-29T12:37:11.165Z,7.79
2023-03-29T12:40:58.865Z,8.14
2023-03-29T12:44:24.025Z,8.48
2023-03-29T12:47:43.609Z,8.69
2023-03-29T12:51:00.898Z,8.92
2023-03-29T12:54:24.973Z,9.19
2023-03-29T12:57:47.740Z,9.47
2023-03-29T13:01:06.580Z,9.61
2023-03-29T13:04:18.461Z,9.64
2023-03-29T13:07:22.680Z,9.59
2023-03-29T13:10:50.808Z,9.65
2023-03-29T13:13:55.871Z,9.75
2023-03-29T13:17:17.775Z,9.81
2023-03-29T13:20:44.311Z,9.72
2023-03-29T13:24:16.027Z,9.68
2023-03-29T13:27:49.807Z,9.68
2023-03-29T13:31:12.411Z,9.64
2023-03-29T13:34:35.521Z,9.56
2023-03-29T13:37:57.254Z,9.46
2023-03-29T13:41:23.490Z,9.39
2023-03-29T13:44:46.149Z,9.37
2023-03-29T13:48:05.373Z,9.43
2023-03-29T13:51:13.093Z,9.53
2023-03-29T13:54:40.837Z,9.67
2023-03-29T13:57:56.988Z,9.88
2023-03-29T14:01:13.640Z,10.08
2023-03-29T14:04:24.770Z,10.31
2023-03-29T14:07:32.544Z,10.50
2023-03-29T14:10:42.005Z,10.58
2023-03-29T14:13:46.571Z,10.60
2023-03-29T14:16:50.955Z,10.55
2023-03-29T14:19:58.919Z,10.50
2023-03-29T14:23:10.180Z,10.45
2023-03-29T14:26:15.788Z,10.38
2023-03-29T14:29:19.966Z,10.29
2023-03-29T14:32:31.845Z,10.20
2023-03-29T14:35:36.336Z,10.07
2023-03-29T14:38:40.479Z,9.98
2023-03-29T14:41:51.118Z,9.94
2023-03-29T14:45:04.264Z,10.04
2023-03-29T14:48:12.694Z,10.33
2023-03-29T14:51:17.179Z,10.69
2023-03-29T14:54:28.835Z,11.04
2023-03-29T14:57:36.572Z,11.36
2023-03-29T15:00:44.161Z,11.54
2023-03-29T15:04:05.913Z,11.69
2023-03-29T15:07:09.983Z,11.81
2023-03-29T15:10:19.209Z,11.88
2023-03-29T15:13:25.388Z,11.96
2023-03-29T15:16:30.746Z,11.97
2023-03-29T15:19:36.600Z,11.95
2023-03-29T15:22:53.520Z,11.96
2023-03-29T15:26:06.854Z,11.85
2023-03-29T15:29:23.438Z,11.73
2023-03-29T15:32:34.797Z,11.64
2023-03-29T15:35:38.933Z,11.54
2023-03-29T15:38:45.174Z,11.49
2023-03-29T15:41:52.134Z,11.44
2023-03-29T15:44:56.541Z,11.34
2023-03-29T15:48:04.888Z,11.30
2023-03-29T15:51:12.747Z,11.25
2023-03-29T15:54:16.711Z,11.17
2023-03-29T15:57:20.887Z,11.08
2023-03-29T16:00:25.768Z,10.99
2023-03-29T16:03:29.744Z,10.92
2023-03-29T16:06:34.615Z,10.83
2023-03-29T16:09:39.018Z,10.72
2023-03-29T16:12:43.034Z,10.66
2023-03-29T16:15:47.704Z,10.68
2023-03-29T16:18:51.976Z,10.62
2023-03-29T16:21:56.925Z,10.57
2023-03-29T16:25:01.245Z,10.52
2023-03-29T16:28:06.696Z,10.39
2023-03-29T16:31:12.702Z,10.22
2023-03-29T16:34:18.863Z,10.04
2023-03-29T16:37:23.119Z,9.87
2023-03-29T16:40:28.098Z,9.72
2023-03-29T16:43:32.508Z,9.58
2023-03-29T16:46:36.546Z,9.45
2023-03-29T16:49:41.094Z,9.31
2023-03-29T16:52:48.562Z,9.18
2023-03-29T16:55:52.769Z,9.00
2023-03-29T16:58:56.782Z,8.85
2023-03-29T17:02:01.109Z,8.69
2023-03-29T17:05:06.167Z,8.55
2023-03-29T17:08:10.383Z,8.40
2023-03-29T17:11:15.641Z,8.28
2023-03-29T17:14:19.619Z,8.16
2023-03-29T17:17:23.813Z,8.04
2023-03-29T17:20:27.945Z,7.94
2023-03-29T17:23:31.935Z,7.81
2023-03-29T17:26:38.147Z,7.66
2023-03-29T17:29:42.160Z,7.53
2023-03-29T17:32:46.087Z,7.42
2023-03-29T17:35:50.056Z,7.30
2023-03-29T17:38:54.833Z,7.17
2023-03-29T17:41:58.851Z,7.07
2023-03-29T17:45:02.944Z,6.97
2023-03-29T17:48:06.864Z,6.88
2023-03-29T17:51:11.095Z,6.81
2023-03-29T17:54:16.337Z,6.72
2023-03-29T17:57:20.407Z,6.62
2023-03-29T18:00:24.681Z,6.50
2023-03-29T18:03:28.637Z,6.39
2023-03-29T18:06:33.023Z,6.30
2023-03-29T18:09:37.548Z,6.24
2023-03-29T18:12:41.653Z,6.18
2023-03-29T18:15:45.883Z,6.12
2023-03-29T18:18:49.996Z,6.05
2023-03-29T18:21:54.125Z,5.98
2023-03-29T18:24:58.029Z,5.88
2023-03-29T18:28:02.054Z,5.78
2023-03-29T18:31:06.411Z,5.70
2023-03-29T18:34:10.599Z,5.61
2023-03-29T18:37:17.435Z,5.50
2023-03-29T18:40:24.911Z,5.43
2023-03-29T18:43:29.630Z,5.39
2023-03-29T18:46:34.254Z,5.32
2023-03-29T18:49:38.660Z,5.29
2023-03-29T18:52:42.632Z,5.26
2023-03-29T18:55:47.106Z,5.23
2023-03-29T18:58:51.535Z,5.20
2023-03-29T19:01:55.881Z,5.19
2023-03-29T19:04:59.869Z,5.16
2023-03-29T19:08:05.944Z,5.13
2023-03-29T19:11:14.269Z,5.09
2023-03-29T19:14:23.484Z,5.08
2023-03-29T19:17:28.363Z,5.06
2023-03-29T19:20:32.443Z,5.02
2023-03-29T19:23:36.423Z,4.98
2023-03-29T19:26:43.754Z,4.95
2023-03-29T19:29:48.324Z,4.90
2023-03-29T19:32:52.991Z,4.88
2023-03-29T19:35:57.119Z,4.85
2023-03-29T19:39:01.343Z,4.84
2023-03-29T19:42:05.776Z,4.82
2023-03-29T19:45:10.774Z,4.81
2023-03-29T19:48:22.397Z,4.80
2023-03-29T19:51:28.394Z,4.78
2023-03-29T19:54:32.364Z,4.75
2023-03-29T19:57:37.230Z,4.73
2023-03-29T20:00:41.975Z,4.69
2023-03-29T20:03:50.022Z,4.65
2023-03-29T20:06:54.377Z,4.63
2023-03-29T20:09:58.293Z,4.62
2023-03-29T20:13:03.174Z,4.60
2023-03-29T20:16:10.440Z,4.56
2023-03-29T20:19:17.640Z,4.53
2023-03-29T20:22:26.132Z,4.49
2023-03-29T20:25:30.135Z,4.45
2023-03-29T20:28:34.879Z,4.43
2023-03-29T20:31:38.846Z,4.42
2023-03-29T20:34:42.890Z,4.38
2023-03-29T20:37:46.866Z,4.35
2023-03-29T20:40:50.842Z,4.32
2023-03-29T20:44:02.957Z,4.30
2023-03-29T20:47:08.420Z,4.27
2023-03-29T20:50:12.415Z,4.22
2023-03-29T20:53:16.429Z,4.19
2023-03-29T20:56:21.067Z,4.14
2023-03-29T20:59:25.178Z,4.11
2023-03-29T21:02:29.315Z,4.05
2023-03-29T21:05:34.041Z,4.01
2023-03-29T21:08:38.870Z,3.96
2023-03-29T21:11:43.579Z,3.92
2023-03-29T21:14:47.714Z,3.87
2023-03-29T21:17:51.738Z,3.81
2023-03-29T21:20:55.746Z,3.74
2023-03-29T21:23:59.649Z,3.67
2023-03-29T21:27:03.773Z,3.62
2023-03-29T21:30:09.069Z,3.58
2023-03-29T21:33:13.036Z,3.53
2023-03-29T21:36:16.953Z,3.49
2023-03-29T21:39:20.972Z,3.42
2023-03-29T21:42:25.021Z,3.38
2023-03-29T21:45:28.922Z,3.34
2023-03-29T21:48:33.132Z,3.28
2023-03-29T21:51:37.242Z,3.26
2023-03-29T21:54:41.208Z,3.23
2023-03-29T21:57:45.884Z,3.19
2023-03-29T22:00:49.942Z,3.15
2023-03-29T22:03:53.914Z,3.13
2023-03-29T22:06:58.233Z,3.11
2023-03-29T22:10:04.420Z,3.10
2023-03-29T22:13:09.453Z,3.09
2023-03-29T22:16:16.519Z,3.09
2023-03-29T22:19:20.759Z,3.09
2023-03-29T22:22:25.700Z,3.09
2023-03-29T22:25:29.708Z,3.11
2023-03-29T22:28:36.703Z,3.11
2023-03-29T22:31:41.064Z,3.10
2023-03-29T22:34:45.127Z,3.11
2023-03-29T22:37:49.063Z,3.15
2023-03-29T22:40:53.202Z,3.17
2023-03-29T22:43:58.978Z,3.18
2023-03-29T22:47:03.027Z,3.20
2023-03-29T22:50:08.086Z,3.23
2023-03-29T22:53:12.091Z,3.25
2023-03-29T22:56:17.262Z,3.29
2023-03-29T22:59:21.530Z,3.37
2023-03-29T23:02:25.499Z,3.45
2023-03-29T23:05:29.794Z,3.51
2023-03-29T23:08:35.061Z,3.59
2023-03-29T23:11:38.958Z,3.66
2023-03-29T23:14:45.221Z,3.74
2023-03-29T23:17:49.690Z,3.82
2023-03-29T23:20:55.710Z,3.89
2023-03-29T23:24:00.736Z,3.95
2023-03-29T23:27:05.607Z,4.00
2023-03-29T23:30:11.855Z,4.06
2023-03-29T23:33:15.860Z,4.11
2023-03-29T23:36:21.627Z,4.16
2023-03-29T23:39:25.621Z,4.20
2023-03-29T23:42:29.649Z,4.23
2023-03-29T23:45:36.128Z,4.26
2023-03-29T23:48:40.082Z,4.29
2023-03-29T23:51:45.187Z,4.32
2023-03-29T23:54:50.373Z,4.34
2023-03-29T23:57:54.431Z,4.36
